createdAt,value
2023-06-17T00:00:33.216Z,18.23
2023-06-17T00:03:24.866Z,18.25
2023-06-17T00:06:16.904Z,18.24
2023-06-17T00:09:07.852Z,18.20
2023-06-17T00:11:53.476Z,18.14
2023-06-17T00:14:45.823Z,18.14
2023-06-17T00:17:31.940Z,18.18
2023-06-17T00:20:24.039Z,18.15
2023-06-17T00:23:09.368Z,18.04
2023-06-17T00:26:00.832Z,17.94
2023-06-17T00:28:51.846Z,17.90
2023-06-17T00:31:37.125Z,17.81
2023-06-17T00:34:28.836Z,17.73
2023-06-17T00:37:13.788Z,17.59
2023-06-17T00:40:05.838Z,17.61
2023-06-17T00:42:57.860Z,17.39
2023-06-17T00:45:42.855Z,17.40
2023-06-17T00:48:34.851Z,17.36
2023-06-17T00:51:19.809Z,17.39
2023-06-17T00:54:10.863Z,17.32
2023-06-17T00:56:56.156Z,17.26
2023-06-17T00:59:49.846Z,17.19
2023-06-17T01:02:42.222Z,17.20
2023-06-17T01:05:47.854Z,17.19
2023-06-17T01:08:47.877Z,17.15
2023-06-17T01:11:40.855Z,17.00
2023-06-17T01:14:33.870Z,16.93
2023-06-17T01:17:25.898Z,16.84
2023-06-17T01:20:23.144Z,16.87
2023-06-17T01:23:11.882Z,16.81
2023-06-17T01:26:05.877Z,16.75
2023-06-17T01:28:51.073Z,16.75
2023-06-17T01:31:43.857Z,16.80
2023-06-17T01:35:10.880Z,16.91
2023-06-17T01:38:09.873Z,16.72
2023-06-17T01:41:05.608Z,16.71
2023-06-17T01:43:57.868Z,16.51
2023-06-17T01:46:43.716Z,16.43
2023-06-17T01:49:35.874Z,16.43
2023-06-17T01:52:20.785Z,16.41
2023-06-17T01:55:12.891Z,16.26
2023-06-17T01:57:57.912Z,16.26
2023-06-17T02:00:49.907Z,16.10
2023-06-17T02:03:35.451Z,16.08
2023-06-17T02:06:33.892Z,16.19
2023-06-17T02:09:19.716Z,16.12
2023-06-17T02:12:12.856Z,16.11
2023-06-17T02:14:58.677Z,15.99
2023-06-17T02:17:50.914Z,15.93
2023-06-17T02:20:35.951Z,15.98
2023-06-17T02:23:27.881Z,15.98
2023-06-17T02:26:18.888Z,16.11
2023-06-17T02:29:11.910Z,16.01
2023-06-17T02:31:56.986Z,15.96
2023-06-17T02:34:49.903Z,16.07
2023-06-17T02:37:34.603Z,16.00
2023-06-17T02:40:25.896Z,15.89
2023-06-17T02:43:10.792Z,15.81
2023-06-17T02:46:02.894Z,15.79
2023-06-17T02:48:47.642Z,15.83
2023-06-17T02:51:39.920Z,15.65
2023-06-17T02:54:25.127Z,15.66
2023-06-17T02:57:16.883Z,15.64
2023-06-17T03:00:02.219Z,15.69
2023-06-17T03:02:55.014Z,15.73
2023-06-17T03:05:46.945Z,15.74
2023-06-17T03:08:39.916Z,15.66
2023-06-17T03:11:24.971Z,15.48
2023-06-17T03:14:15.913Z,15.51
2023-06-17T03:17:02.072Z,15.52
2023-06-17T03:19:53.905Z,15.47
2023-06-17T03:22:39.041Z,15.42
2023-06-17T03:25:30.910Z,15.46
2023-06-17T03:28:16.895Z,15.45
2023-06-17T03:31:08.946Z,15.56
2023-06-17T03:33:54.728Z,15.43
2023-06-17T03:36:47.901Z,15.47
2023-06-17T03:39:32.896Z,15.50
2023-06-17T03:42:24.910Z,15.54
2023-06-17T03:45:16.918Z,15.60
2023-06-17T03:48:01.829Z,15.66
2023-06-17T03:50:53.931Z,15.66
2023-06-17T03:53:38.933Z,15.66
2023-06-17T03:56:30.926Z,15.65
2023-06-17T03:59:22.915Z,15.61
2023-06-17T04:02:14.931Z,15.54
2023-06-17T04:05:19.931Z,15.56
2023-06-17T04:08:05.441Z,15.67
2023-06-17T04:10:56.926Z,15.68
2023-06-17T04:13:42.116Z,15.59
2023-06-17T04:16:37.937Z,15.40
2023-06-17T04:19:24.966Z,15.27
2023-06-17T04:22:15.911Z,15.26
2023-06-17T04:25:00.632Z,15.23
2023-06-17T04:27:51.917Z,15.38
2023-06-17T04:30:38.765Z,15.45
2023-06-17T04:33:32.112Z,15.58
2023-06-17T04:36:18.443Z,15.67
2023-06-17T04:39:12.016Z,15.83
2023-06-17T04:42:03.944Z,15.97
2023-06-17T04:44:56.926Z,16.08
2023-06-17T04:47:48.990Z,16.56
2023-06-17T04:50:34.426Z,16.55
2023-06-17T04:53:25.940Z,16.55
2023-06-17T04:56:11.408Z,16.50
2023-06-17T04:59:02.926Z,16.38
2023-06-17T05:01:53.944Z,16.45
2023-06-17T05:04:44.946Z,16.42
2023-06-17T05:07:36.312Z,16.48
2023-06-17T05:10:27.950Z,16.51
2023-06-17T05:13:13.070Z,16.58
2023-06-17T05:16:04.950Z,16.43
2023-06-17T05:18:55.949Z,16.38
2023-06-17T05:21:40.968Z,16.45
2023-06-17T05:24:31.994Z,16.60
2023-06-17T05:27:23.920Z,16.75
2023-06-17T05:30:09.243Z,16.88
2023-06-17T05:33:01.019Z,16.81
2023-06-17T05:35:45.848Z,16.97
2023-06-17T05:38:37.945Z,17.01
2023-06-17T05:41:23.150Z,17.18
2023-06-17T05:44:14.969Z,17.28
2023-06-17T05:47:00.195Z,17.46
2023-06-17T05:49:50.955Z,17.43
2023-06-17T05:52:41.937Z,17.57
2023-06-17T05:55:27.112Z,17.69
2023-06-17T05:58:18.953Z,17.83
2023-06-17T06:01:04.083Z,17.97
2023-06-17T06:03:56.029Z,17.99
2023-06-17T06:06:48.016Z,18.02
2023-06-17T06:09:38.964Z,18.02
2023-06-17T06:12:23.687Z,18.23
2023-06-17T06:15:15.968Z,18.43
2023-06-17T06:18:01.272Z,18.57
2023-06-17T06:20:52.978Z,18.64
2023-06-17T06:23:43.964Z,18.60
2023-06-17T06:26:28.798Z,18.85
2023-06-17T06:29:21.008Z,19.08
2023-06-17T06:32:12.956Z,19.31
2023-06-17T06:34:58.152Z,19.33
2023-06-17T06:37:49.955Z,19.37
2023-06-17T06:40:35.165Z,19.55
2023-06-17T06:43:26.972Z,19.66
2023-06-17T06:46:12.854Z,19.49
2023-06-17T06:49:05.982Z,19.75
2023-06-17T06:51:57.956Z,19.90
2023-06-17T06:54:42.918Z,19.94
2023-06-17T06:57:34.987Z,20.01
2023-06-17T07:00:20.165Z,20.27
2023-06-17T07:03:12.087Z,20.43
2023-06-17T07:06:16.995Z,20.55
2023-06-17T07:09:08.975Z,20.49
2023-06-17T07:11:53.817Z,20.72
2023-06-17T07:14:44.979Z,20.98
2023-06-17T07:17:37.020Z,20.82
2023-06-17T07:20:21.904Z,21.19
2023-06-17T07:23:13.980Z,21.92
2023-06-17T07:25:59.114Z,23.90
2023-06-17T07:28:50.990Z,24.59
2023-06-17T07:31:42.029Z,25.63
2023-06-17T07:34:32.990Z,24.83
2023-06-17T07:37:23.983Z,24.15
2023-06-17T07:40:14.166Z,23.54
2023-06-17T07:43:05.988Z,23.16
2023-06-17T07:45:50.974Z,25.00
2023-06-17T07:48:42.994Z,28.23
2023-06-17T07:51:28.112Z,29.54
2023-06-17T07:54:19.005Z,30.01
2023-06-17T07:57:04.913Z,31.42
2023-06-17T07:59:56.015Z,27.69
2023-06-17T08:02:42.246Z,29.35
2023-06-17T08:05:33.996Z,30.84
2023-06-17T08:08:25.182Z,32.09
2023-06-17T08:11:17.058Z,33.25
2023-06-17T08:14:01.756Z,33.44
2023-06-17T08:16:53.040Z,30.36
2023-06-17T08:19:45.018Z,28.92
2023-06-17T08:22:37.038Z,32.10
2023-06-17T08:25:28.008Z,33.63
2023-06-17T08:28:12.862Z,33.18
2023-06-17T08:31:04.012Z,30.96
2023-06-17T08:33:48.796Z,28.42
2023-06-17T08:36:40.033Z,31.47
2023-06-17T08:39:25.329Z,29.73
2023-06-17T08:42:17.014Z,27.74
2023-06-17T08:45:02.286Z,31.17
2023-06-17T08:47:54.074Z,32.28
2023-06-17T08:50:46.038Z,32.77
2023-06-17T08:53:32.818Z,33.76
2023-06-17T08:56:25.050Z,33.38
2023-06-17T08:59:09.833Z,32.28
2023-06-17T09:02:01.035Z,31.60
2023-06-17T09:04:46.530Z,31.56
2023-06-17T09:07:45.034Z,31.00
2023-06-17T09:10:37.044Z,28.99
2023-06-17T09:13:22.077Z,31.07
2023-06-17T09:16:14.093Z,30.20
2023-06-17T09:19:14.047Z,30.92
2023-06-17T09:22:06.793Z,31.52
2023-06-17T09:25:05.060Z,32.58
2023-06-17T09:28:15.181Z,32.83
2023-06-17T09:31:11.068Z,34.56
2023-06-17T09:33:57.877Z,33.80
2023-06-17T09:36:49.053Z,35.53
2023-06-17T09:39:34.371Z,34.89
2023-06-17T09:42:27.055Z,34.15
2023-06-17T09:45:20.522Z,34.65
2023-06-17T09:48:12.311Z,34.20
2023-06-17T09:50:58.472Z,34.61
2023-06-17T09:53:52.052Z,33.38
2023-06-17T09:56:38.747Z,33.57
2023-06-17T09:59:31.056Z,32.78
2023-06-17T10:02:16.056Z,34.92
2023-06-17T10:05:08.072Z,34.66
2023-06-17T10:07:59.926Z,35.33
2023-06-17T10:10:52.074Z,34.71
2023-06-17T10:13:40.514Z,34.37
2023-06-17T10:16:35.090Z,34.14
2023-06-17T10:19:36.071Z,32.47
2023-06-17T10:22:23.030Z,33.92
2023-06-17T10:25:17.098Z,33.67
2023-06-17T10:28:04.260Z,32.38
2023-06-17T10:30:59.075Z,33.68
2023-06-17T10:33:46.303Z,33.28
2023-06-17T10:36:41.121Z,34.18
2023-06-17T10:39:26.470Z,33.00
2023-06-17T10:42:21.077Z,34.27
2023-06-17T10:45:13.526Z,34.55
2023-06-17T10:48:28.085Z,35.05
2023-06-17T10:51:13.287Z,34.67
2023-06-17T10:54:05.098Z,34.28
2023-06-17T10:56:53.537Z,34.23
2023-06-17T10:59:45.106Z,33.53
2023-06-17T11:02:31.253Z,34.38
2023-06-17T11:05:23.101Z,32.88
2023-06-17T11:08:15.249Z,34.55
2023-06-17T11:11:21.096Z,34.79
2023-06-17T11:14:05.966Z,33.88
2023-06-17T11:16:57.196Z,34.72
2023-06-17T11:19:42.424Z,34.28
2023-06-17T11:22:34.115Z,35.05
2023-06-17T11:25:19.677Z,35.23
2023-06-17T11:28:12.120Z,35.45
2023-06-17T11:31:04.140Z,35.04
2023-06-17T11:33:50.171Z,31.70
2023-06-17T11:36:43.109Z,31.20
2023-06-17T11:39:30.784Z,30.98
2023-06-17T11:42:23.118Z,29.11
2023-06-17T11:45:09.261Z,29.48
2023-06-17T11:48:01.130Z,28.61
2023-06-17T11:50:53.108Z,28.47
2023-06-17T11:53:45.117Z,29.12
2023-06-17T11:56:33.134Z,29.89
2023-06-17T11:59:27.127Z,30.41
2023-06-17T12:02:19.189Z,30.04
2023-06-17T12:05:04.629Z,29.97
2023-06-17T12:08:08.122Z,29.62
2023-06-17T12:11:19.560Z,28.86
2023-06-17T12:14:09.186Z,29.27
2023-06-17T12:17:00.552Z,29.25
2023-06-17T12:19:55.547Z,29.45
2023-06-17T12:22:47.571Z,29.25
2023-06-17T12:25:42.553Z,29.41
2023-06-17T12:28:27.660Z,29.27
2023-06-17T12:31:22.563Z,29.37
2023-06-17T12:34:07.995Z,28.37
2023-06-17T12:37:00.572Z,28.20
2023-06-17T12:39:45.727Z,28.81
2023-06-17T12:42:37.596Z,28.97
2023-06-17T12:45:23.015Z,28.13
2023-06-17T12:48:15.574Z,27.99
2023-06-17T12:51:00.783Z,28.72
2023-06-17T12:53:52.581Z,28.65
2023-06-17T12:56:37.360Z,28.68
2023-06-17T12:59:29.564Z,29.08
2023-06-17T13:02:20.578Z,28.92
2023-06-17T13:05:12.578Z,28.46
2023-06-17T13:07:57.797Z,28.88
2023-06-17T13:10:49.580Z,29.02
2023-06-17T13:13:41.582Z,28.99
2023-06-17T13:16:27.304Z,28.94
2023-06-17T13:19:18.575Z,28.38
2023-06-17T13:22:10.596Z,28.65
2023-06-17T13:24:55.477Z,28.78
2023-06-17T13:27:47.591Z,29.06
2023-06-17T13:30:32.628Z,29.00
2023-06-17T13:33:24.608Z,29.08
2023-06-17T13:36:09.776Z,29.10
2023-06-17T13:39:01.582Z,28.90
2023-06-17T13:41:53.589Z,29.15
2023-06-17T13:44:39.744Z,29.13
2023-06-17T13:47:31.617Z,29.47
2023-06-17T13:50:16.494Z,28.98
2023-06-17T13:53:08.610Z,29.07
2023-06-17T13:55:53.574Z,29.33
2023-06-17T13:58:44.586Z,29.23
2023-06-17T14:01:29.725Z,29.21
2023-06-17T14:04:21.762Z,28.76
2023-06-17T14:07:06.842Z,28.29
2023-06-17T14:09:58.606Z,28.19
2023-06-17T14:12:49.792Z,28.29
2023-06-17T14:15:40.610Z,28.61
2023-06-17T14:18:25.605Z,28.81
2023-06-17T14:21:38.663Z,29.00
2023-06-17T14:24:23.598Z,28.80
2023-06-17T14:27:33.629Z,28.61
2023-06-17T14:30:25.818Z,28.76
2023-06-17T14:33:17.634Z,28.86
2023-06-17T14:36:09.620Z,28.77
2023-06-17T14:38:55.272Z,28.70
2023-06-17T14:41:46.642Z,28.99
2023-06-17T14:44:31.628Z,28.84
2023-06-17T14:47:23.685Z,29.00
2023-06-17T14:50:18.720Z,28.71
2023-06-17T14:53:10.742Z,28.50
2023-06-17T14:56:21.391Z,28.47
2023-06-17T14:59:13.655Z,28.53
2023-06-17T15:01:58.820Z,28.46
2023-06-17T15:04:50.637Z,28.58
2023-06-17T15:07:35.500Z,28.44
2023-06-17T15:10:33.650Z,28.69
2023-06-17T15:13:18.902Z,28.61
2023-06-17T15:16:10.633Z,28.39
2023-06-17T15:18:55.561Z,27.87
2023-06-17T15:21:47.651Z,27.96
2023-06-17T15:24:40.768Z,28.05
2023-06-17T15:27:25.615Z,28.26
2023-06-17T15:30:17.666Z,28.34
2023-06-17T15:33:03.472Z,28.37
2023-06-17T15:35:54.630Z,28.27
2023-06-17T15:38:45.668Z,28.12
2023-06-17T15:41:36.645Z,28.24
2023-06-17T15:44:22.243Z,28.03
2023-06-17T15:47:13.640Z,28.00
2023-06-17T15:50:05.700Z,28.15
2023-06-17T15:52:57.670Z,28.09
2023-06-17T15:55:43.011Z,28.10
2023-06-17T15:58:34.671Z,27.99
2023-06-17T16:01:19.538Z,28.12
2023-06-17T16:04:20.775Z,27.89
2023-06-17T16:07:13.594Z,27.87
2023-06-17T16:10:05.673Z,27.78
2023-06-17T16:12:58.055Z,27.33
2023-06-17T16:15:49.691Z,27.37
2023-06-17T16:18:41.675Z,27.52
2023-06-17T16:21:26.505Z,27.59
2023-06-17T16:24:20.717Z,27.63
2023-06-17T16:27:05.937Z,27.44
2023-06-17T16:29:57.740Z,27.49
2023-06-17T16:32:42.543Z,27.47
2023-06-17T16:35:34.685Z,27.34
2023-06-17T16:38:20.247Z,27.35
2023-06-17T16:41:11.761Z,27.45
2023-06-17T16:43:56.993Z,27.45
2023-06-17T16:46:48.682Z,27.55
2023-06-17T16:49:33.806Z,27.49
2023-06-17T16:52:25.675Z,27.37
2023-06-17T16:55:17.706Z,27.33
2023-06-17T16:58:02.559Z,27.31
2023-06-17T17:00:53.691Z,27.36
2023-06-17T17:03:39.642Z,27.41
2023-06-17T17:06:31.669Z,27.37
2023-06-17T17:09:22.713Z,27.23
2023-06-17T17:12:15.103Z,27.26
2023-06-17T17:15:06.712Z,27.16
2023-06-17T17:17:57.736Z,27.25
2023-06-17T17:20:42.564Z,27.08
2023-06-17T17:23:33.727Z,27.06
2023-06-17T17:26:18.801Z,26.97
2023-06-17T17:29:10.756Z,26.93
2023-06-17T17:31:55.822Z,26.97
2023-06-17T17:34:47.712Z,26.84
2023-06-17T17:37:32.631Z,26.81
2023-06-17T17:40:24.937Z,26.78
2023-06-17T17:43:10.219Z,26.76
2023-06-17T17:46:01.845Z,26.75
2023-06-17T17:48:46.904Z,26.76
2023-06-17T17:51:38.709Z,26.59
2023-06-17T17:54:25.049Z,26.47
2023-06-17T17:57:16.712Z,26.45
2023-06-17T18:00:01.950Z,26.32
2023-06-17T18:02:53.814Z,26.20
2023-06-17T18:05:39.307Z,26.14
2023-06-17T18:08:30.722Z,26.14
2023-06-17T18:11:28.737Z,26.03
2023-06-17T18:14:13.847Z,25.92
2023-06-17T18:17:04.730Z,25.90
2023-06-17T18:19:49.475Z,25.88
2023-06-17T18:22:40.724Z,25.87
2023-06-17T18:25:32.736Z,25.89
2023-06-17T18:28:18.019Z,25.93
2023-06-17T18:31:09.729Z,25.89
2023-06-17T18:34:00.746Z,25.64
2023-06-17T18:36:45.899Z,25.50
2023-06-17T18:39:37.736Z,25.33
2023-06-17T18:42:24.175Z,25.14
2023-06-17T18:45:16.729Z,25.06
2023-06-17T18:48:03.533Z,24.91
2023-06-17T18:50:54.725Z,24.96
2023-06-17T18:53:39.683Z,24.90
2023-06-17T18:56:33.735Z,24.84
2023-06-17T18:59:18.458Z,24.78
2023-06-17T19:02:10.743Z,24.72
2023-06-17T19:04:56.738Z,24.65
2023-06-17T19:07:52.766Z,24.55
2023-06-17T19:10:43.792Z,24.50
2023-06-17T19:13:41.751Z,24.38
2023-06-17T19:16:32.785Z,24.31
2023-06-17T19:19:23.757Z,24.16
2023-06-17T19:22:08.962Z,23.91
2023-06-17T19:25:00.757Z,23.79
2023-06-17T19:27:45.975Z,23.69
2023-06-17T19:30:37.742Z,23.53
2023-06-17T19:33:28.752Z,23.43
2023-06-17T19:36:13.525Z,23.32
2023-06-17T19:39:04.764Z,23.10
2023-06-17T19:41:55.748Z,23.04
2023-06-17T19:44:50.772Z,23.02
2023-06-17T19:47:41.812Z,22.78
2023-06-17T19:50:26.938Z,22.71
2023-06-17T19:53:18.793Z,22.69
2023-06-17T19:56:10.778Z,22.66
2023-06-17T19:58:55.713Z,22.60
2023-06-17T20:01:46.806Z,22.52
2023-06-17T20:04:33.674Z,22.32
2023-06-17T20:07:25.763Z,22.25
2023-06-17T20:10:17.792Z,22.16
2023-06-17T20:13:08.859Z,22.04
2023-06-17T20:16:00.811Z,21.82
2023-06-17T20:18:45.628Z,21.75
2023-06-17T20:21:37.838Z,21.59
2023-06-17T20:24:28.816Z,21.49
2023-06-17T20:27:13.683Z,21.33
2023-06-17T20:30:04.787Z,21.25
2023-06-17T20:32:49.681Z,21.22
2023-06-17T20:35:41.773Z,21.22
2023-06-17T20:38:27.428Z,21.25
2023-06-17T20:41:18.767Z,21.23
2023-06-17T20:44:03.881Z,21.22
2023-06-17T20:46:55.786Z,21.11
2023-06-17T20:49:47.801Z,21.09
2023-06-17T20:52:32.806Z,21.05
2023-06-17T20:55:23.865Z,20.95
2023-06-17T20:58:08.919Z,20.89
2023-06-17T21:01:00.876Z,20.85
2023-06-17T21:03:46.578Z,20.76
2023-06-17T21:06:37.784Z,20.67
2023-06-17T21:09:22.515Z,20.57
2023-06-17T21:12:13.802Z,20.40
2023-06-17T21:14:58.534Z,20.20
2023-06-17T21:17:49.835Z,20.11
2023-06-17T21:20:34.857Z,20.10
2023-06-17T21:23:25.799Z,20.19
2023-06-17T21:26:16.795Z,20.25
2023-06-17T21:29:02.130Z,20.23
2023-06-17T21:31:53.826Z,20.14
2023-06-17T21:34:44.818Z,20.04
2023-06-17T21:37:29.959Z,20.01
2023-06-17T21:40:22.145Z,19.97
2023-06-17T21:43:07.661Z,19.96
2023-06-17T21:45:59.844Z,19.89
2023-06-17T21:48:44.975Z,19.81
2023-06-17T21:51:36.822Z,19.80
2023-06-17T21:54:21.951Z,19.79
2023-06-17T21:57:13.810Z,19.73
2023-06-17T21:59:58.885Z,19.71
2023-06-17T22:02:49.898Z,19.78
2023-06-17T22:05:34.885Z,19.78
2023-06-17T22:08:37.858Z,19.62
2023-06-17T22:11:39.821Z,19.50
2023-06-17T22:14:37.826Z,19.35
2023-06-17T22:17:22.799Z,19.35
2023-06-17T22:20:14.834Z,19.34
2023-06-17T22:22:59.717Z,19.40
2023-06-17T22:25:51.842Z,19.33
2023-06-17T22:28:37.026Z,19.24
2023-06-17T22:31:28.812Z,19.29
2023-06-17T22:34:13.766Z,19.36
2023-06-17T22:37:04.850Z,19.36
2023-06-17T22:39:49.941Z,19.34
2023-06-17T22:42:41.826Z,19.21
2023-06-17T22:45:26.873Z,19.18
2023-06-17T22:48:17.840Z,19.13
2023-06-17T22:51:03.130Z,19.06
2023-06-17T22:53:55.859Z,18.99
2023-06-17T22:56:41.051Z,18.85
2023-06-17T22:59:32.883Z,18.84
2023-06-17T23:02:17.667Z,18.66
2023-06-17T23:05:08.852Z,18.40
2023-06-17T23:07:53.934Z,18.28
2023-06-17T23:10:46.834Z,18.27
2023-06-17T23:13:31.620Z,18.31
2023-06-17T23:16:22.894Z,18.30
2023-06-17T23:19:07.901Z,18.23
2023-06-17T23:21:59.829Z,18.20
2023-06-17T23:24:44.966Z,18.22
2023-06-17T23:27:37.841Z,18.02
2023-06-17T23:30:23.988Z,18.13
2023-06-17T23:33:17.845Z,18.12
2023-06-17T23:36:03.360Z,18.11
2023-06-17T23:38:55.859Z,18.05
2023-06-17T23:41:46.850Z,17.95
2023-06-17T23:44:31.911Z,17.82
2023-06-17T23:47:24.885Z,17.89
2023-06-17T23:50:10.198Z,17.92
2023-06-17T23:53:01.896Z,17.93
2023-06-17T23:55:52.848Z,17.93
2023-06-17T23:58:37.770Z,17.90
